createdAt,value
2017-08-09T00:00:39.054Z,1.60
2017-08-09T00:03:07.184Z,1.77
2017-08-09T00:05:34.813Z,1.60
2017-08-09T00:08:02.885Z,1.77
2017-08-09T00:10:30.514Z,1.60
2017-08-09T00:12:58.175Z,1.40
2017-08-09T00:15:25.902Z,1.70
2017-08-09T00:17:53.567Z,1.50
2017-08-09T00:20:21.314Z,1.27
2017-08-09T00:22:48.990Z,1.30
2017-08-09T00:25:17.119Z,1.50
2017-08-09T00:27:44.747Z,1.50
2017-08-09T00:30:12.515Z,1.50
2017-08-09T00:32:40.254Z,2.50
2017-08-09T00:35:07.886Z,1.73
2017-08-09T00:37:35.646Z,1.60
2017-08-09T00:40:03.300Z,1.97
2017-08-09T00:42:31.041Z,2.30
2017-08-09T00:44:58.738Z,2.03
2017-08-09T00:47:26.439Z,1.90
2017-08-09T00:49:54.061Z,1.90
2017-08-09T00:52:21.822Z,2.40
2017-08-09T00:54:49.468Z,1.60
2017-08-09T00:57:17.115Z,2.60
2017-08-09T00:59:44.798Z,2.60
2017-08-09T01:02:12.426Z,2.70
2017-08-09T01:04:40.058Z,2.67
2017-08-09T01:07:07.794Z,2.70
2017-08-09T01:09:35.418Z,3.00
2017-08-09T01:12:03.063Z,2.17
2017-08-09T01:14:30.835Z,2.97
2017-08-09T01:16:58.478Z,2.70
2017-08-09T01:19:26.123Z,2.20
2017-08-09T01:21:53.890Z,3.10
2017-08-09T01:24:21.618Z,2.80
2017-08-09T01:26:49.246Z,2.43
2017-08-09T01:29:16.934Z,2.87
2017-08-09T01:31:45.064Z,3.00
2017-08-09T01:34:12.811Z,2.73
2017-08-09T01:36:40.507Z,3.03
2017-08-09T01:39:08.184Z,3.40
2017-08-09T01:41:36.360Z,2.70
2017-08-09T01:44:04.110Z,3.07
2017-08-09T01:46:31.742Z,3.07
2017-08-09T01:48:59.390Z,2.90
2017-08-09T01:51:27.097Z,2.83
2017-08-09T01:53:54.750Z,3.10
2017-08-09T01:56:22.394Z,3.10
2017-08-09T01:58:50.183Z,3.50
2017-08-09T02:01:17.859Z,3.00
2017-08-09T02:03:45.984Z,2.50
2017-08-09T02:06:13.731Z,1.80
2017-08-09T02:08:41.354Z,2.47
2017-08-09T02:11:08.985Z,2.27
2017-08-09T02:13:36.663Z,2.70
2017-08-09T02:16:04.299Z,3.07
2017-08-09T02:18:31.939Z,1.90
2017-08-09T02:20:59.705Z,2.60
2017-08-09T02:23:27.349Z,1.90
2017-08-09T02:25:54.978Z,1.80
2017-08-09T02:28:22.761Z,1.77
2017-08-09T02:30:50.488Z,2.13
2017-08-09T02:33:18.123Z,2.03
2017-08-09T02:35:45.827Z,2.43
2017-08-09T02:38:13.454Z,2.70
2017-08-09T02:40:41.579Z,2.03
2017-08-09T02:43:09.370Z,2.47
2017-08-09T02:45:37.018Z,2.60
2017-08-09T02:48:04.882Z,2.57
2017-08-09T02:50:32.557Z,2.30
2017-08-09T02:53:00.187Z,2.10
2017-08-09T02:55:27.859Z,1.63
2017-08-09T02:57:55.710Z,1.60
2017-08-09T03:00:23.342Z,1.50
2017-08-09T03:02:50.974Z,2.00
2017-08-09T03:05:18.747Z,2.10
2017-08-09T03:07:46.387Z,1.70
2017-08-09T03:10:14.017Z,1.50
2017-08-09T03:12:41.782Z,1.43
2017-08-09T03:15:09.529Z,2.00
2017-08-09T03:17:37.163Z,1.60
2017-08-09T03:20:04.834Z,1.60
2017-08-09T03:22:32.485Z,1.40
2017-08-09T03:25:00.118Z,1.40
2017-08-09T03:27:27.801Z,2.00
2017-08-09T03:29:55.430Z,1.33
2017-08-09T03:32:23.559Z,1.60
2017-08-09T03:34:51.307Z,1.10
2017-08-09T03:37:19.054Z,1.63
2017-08-09T03:39:46.799Z,2.13
2017-08-09T03:42:14.495Z,1.40
2017-08-09T03:44:42.121Z,2.00
2017-08-09T03:47:10.183Z,1.40
2017-08-09T03:49:37.862Z,1.60
2017-08-09T03:52:05.515Z,2.13
2017-08-09T03:54:33.182Z,2.03
2017-08-09T03:57:00.928Z,1.30
2017-08-09T03:59:28.577Z,2.00
2017-08-09T04:01:56.218Z,1.87
2017-08-09T04:04:23.918Z,2.00
2017-08-09T04:06:51.610Z,2.23
2017-08-09T04:09:19.257Z,2.37
2017-08-09T04:11:46.946Z,2.67
2017-08-09T04:14:14.647Z,2.07
2017-08-09T04:16:42.278Z,2.10
2017-08-09T04:19:09.970Z,2.03
2017-08-09T04:21:38.092Z,2.13
2017-08-09T04:24:05.742Z,2.10
2017-08-09T04:26:33.470Z,2.27
2017-08-09T04:29:01.111Z,2.23
2017-08-09T04:31:28.776Z,2.30
2017-08-09T04:33:56.627Z,2.03
2017-08-09T04:36:24.262Z,2.30
2017-08-09T04:38:51.889Z,3.53
2017-08-09T04:41:19.645Z,1.80
2017-08-09T04:43:47.289Z,2.10
2017-08-09T04:46:14.927Z,2.37
2017-08-09T04:48:42.619Z,1.77
2017-08-09T04:51:10.653Z,1.20
2017-08-09T04:53:38.296Z,2.07
2017-08-09T04:56:05.990Z,1.57
2017-08-09T04:58:33.696Z,1.77
2017-08-09T05:01:01.330Z,1.90
2017-08-09T05:03:29.020Z,1.70
2017-08-09T05:05:56.659Z,2.03
2017-08-09T05:08:24.689Z,1.30
2017-08-09T05:10:52.427Z,1.77
2017-08-09T05:13:20.174Z,1.97
2017-08-09T05:15:47.817Z,2.57
2017-08-09T05:18:15.494Z,2.27
2017-08-09T05:20:43.524Z,3.40
2017-08-09T05:23:11.588Z,2.73
2017-08-09T05:25:39.319Z,1.50
2017-08-09T05:28:07.066Z,1.97
2017-08-09T05:30:34.705Z,2.60
2017-08-09T05:33:02.446Z,2.43
2017-08-09T05:35:30.083Z,2.30
2017-08-09T05:37:57.852Z,2.10
2017-08-09T05:40:25.625Z,2.90
2017-08-09T05:42:53.347Z,2.90
2017-08-09T05:45:21.093Z,2.40
2017-08-09T05:47:49.202Z,2.80
2017-08-09T05:50:16.898Z,3.20
2017-08-09T05:52:44.642Z,2.47
2017-08-09T05:55:12.326Z,3.47
2017-08-09T05:57:40.035Z,2.90
2017-08-09T06:00:07.680Z,3.10
2017-08-09T06:02:35.374Z,3.17
2017-08-09T06:05:03.073Z,3.30
2017-08-09T06:07:30.820Z,3.03
2017-08-09T06:09:58.653Z,2.90
2017-08-09T06:12:26.417Z,2.70
2017-08-09T06:14:54.054Z,2.70
2017-08-09T06:17:21.766Z,3.17
2017-08-09T06:19:49.430Z,3.03
2017-08-09T06:22:17.076Z,2.40
2017-08-09T06:24:44.846Z,1.70
2017-08-09T06:27:12.596Z,1.87
2017-08-09T06:29:40.254Z,1.87
2017-08-09T06:32:07.989Z,2.00
2017-08-09T06:34:35.732Z,2.60
2017-08-09T06:37:03.789Z,2.30
2017-08-09T06:39:31.492Z,2.30
2017-08-09T06:41:59.180Z,2.13
2017-08-09T06:44:26.846Z,1.93
2017-08-09T06:46:54.549Z,2.50
2017-08-09T06:49:22.200Z,2.50
2017-08-09T06:51:49.836Z,2.13
2017-08-09T06:54:17.533Z,1.63
2017-08-09T06:56:45.175Z,2.10
2017-08-09T06:59:12.898Z,1.60
2017-08-09T07:01:40.645Z,1.70
2017-08-09T07:04:08.286Z,1.40
2017-08-09T07:06:35.920Z,1.40
2017-08-09T07:09:03.738Z,1.40
2017-08-09T07:11:31.386Z,1.03
2017-08-09T07:13:59.095Z,1.20
2017-08-09T07:16:26.784Z,1.10
2017-08-09T07:18:54.431Z,1.37
2017-08-09T07:21:22.064Z,1.07
2017-08-09T07:23:49.760Z,0.90
2017-08-09T07:26:17.505Z,0.97
2017-08-09T07:28:45.254Z,1.10
2017-08-09T07:31:12.935Z,1.33
2017-08-09T07:33:40.582Z,0.97
2017-08-09T07:36:08.235Z,1.40
2017-08-09T07:38:35.935Z,0.70
2017-08-09T07:41:03.590Z,0.70
2017-08-09T07:43:31.237Z,1.00
2017-08-09T07:45:58.973Z,1.20
2017-08-09T07:48:26.619Z,0.80
2017-08-09T07:50:54.258Z,0.97
2017-08-09T07:53:21.946Z,1.10
2017-08-09T07:55:50.063Z,0.90
2017-08-09T07:58:17.708Z,0.90
2017-08-09T08:00:45.438Z,1.00
2017-08-09T08:03:13.077Z,0.93
2017-08-09T08:05:40.744Z,1.40
2017-08-09T08:08:08.523Z,1.10
2017-08-09T08:10:36.649Z,1.10
2017-08-09T08:13:04.304Z,0.67
2017-08-09T08:15:32.044Z,0.70
2017-08-09T08:17:59.683Z,1.20
2017-08-09T08:20:27.328Z,0.80
2017-08-09T08:22:55.023Z,0.87
2017-08-09T08:25:22.659Z,1.00
2017-08-09T08:27:51.611Z,0.77
2017-08-09T08:30:19.306Z,0.80
2017-08-09T08:32:46.942Z,1.00
2017-08-09T08:35:14.586Z,1.20
2017-08-09T08:37:42.273Z,0.90
2017-08-09T08:40:10.026Z,0.90
2017-08-09T08:42:37.662Z,1.13
2017-08-09T08:45:05.387Z,1.00
2017-08-09T08:47:33.066Z,0.87
2017-08-09T08:50:00.701Z,0.90
2017-08-09T08:52:28.407Z,0.77
2017-08-09T08:54:56.073Z,1.13
2017-08-09T08:57:23.747Z,1.13
2017-08-09T08:59:51.429Z,1.30
2017-08-09T09:02:19.548Z,1.30
2017-08-09T09:04:47.295Z,1.27
2017-08-09T09:07:14.990Z,1.30
2017-08-09T09:09:42.687Z,1.40
2017-08-09T09:12:10.351Z,1.37
2017-08-09T09:14:38.436Z,1.23
2017-08-09T09:17:06.070Z,1.30
2017-08-09T09:19:34.102Z,1.07
2017-08-09T09:22:01.781Z,0.80
2017-08-09T09:24:29.423Z,1.20
2017-08-09T09:26:57.055Z,0.97
2017-08-09T09:29:25.143Z,1.13
2017-08-09T09:31:52.777Z,1.10
2017-08-09T09:34:20.409Z,0.90
2017-08-09T09:36:48.112Z,0.80
2017-08-09T09:39:15.865Z,1.03
2017-08-09T09:41:44.018Z,0.83
2017-08-09T09:44:11.865Z,0.90
2017-08-09T09:46:39.493Z,1.10
2017-08-09T09:49:07.156Z,0.80
2017-08-09T09:51:34.905Z,0.90
2017-08-09T09:54:02.569Z,1.00
2017-08-09T09:56:30.206Z,1.00
2017-08-09T09:58:58.353Z,0.80
2017-08-09T10:01:26.001Z,1.07
2017-08-09T10:03:53.641Z,0.90
2017-08-09T10:06:21.388Z,0.90
2017-08-09T10:08:49.137Z,1.20
2017-08-09T10:11:16.786Z,1.30
2017-08-09T10:13:44.490Z,1.00
2017-08-09T10:16:12.480Z,1.00
2017-08-09T10:18:40.126Z,1.87
2017-08-09T10:21:07.802Z,0.90
2017-08-09T10:23:35.847Z,0.60
2017-08-09T10:26:03.498Z,0.90
2017-08-09T10:28:31.568Z,1.23
2017-08-09T10:30:59.333Z,1.70
2017-08-09T10:33:26.970Z,0.93
2017-08-09T10:35:54.693Z,1.30
2017-08-09T10:38:22.726Z,1.37
2017-08-09T10:40:50.465Z,1.20
2017-08-09T10:43:18.157Z,1.30
2017-08-09T10:45:45.822Z,1.53
2017-08-09T10:48:13.478Z,1.77
2017-08-09T10:50:41.248Z,1.57
2017-08-09T10:53:09.003Z,1.67
2017-08-09T10:55:36.638Z,2.03
2017-08-09T10:58:04.419Z,2.13
2017-08-09T11:00:32.754Z,1.77
2017-08-09T11:03:00.418Z,1.80
2017-08-09T11:05:28.533Z,1.70
2017-08-09T11:07:56.249Z,2.00
2017-08-09T11:10:23.944Z,2.33
2017-08-09T11:12:51.691Z,2.37
2017-08-09T11:15:19.336Z,2.83
2017-08-09T11:17:46.965Z,3.17
2017-08-09T11:20:14.727Z,2.50
2017-08-09T11:22:42.372Z,1.97
2017-08-09T11:25:09.999Z,2.67
2017-08-09T11:27:37.715Z,3.03
2017-08-09T11:30:05.354Z,2.93
2017-08-09T11:32:32.995Z,3.47
2017-08-09T11:35:00.761Z,3.80
2017-08-09T11:37:28.385Z,3.10
2017-08-09T11:39:56.415Z,3.20
2017-08-09T11:42:24.508Z,3.30
2017-08-09T11:44:52.130Z,3.90
2017-08-09T11:47:20.154Z,3.63
2017-08-09T11:49:47.907Z,4.50
2017-08-09T11:52:15.537Z,3.60
2017-08-09T11:54:43.170Z,2.73
2017-08-09T11:57:10.937Z,3.07
2017-08-09T11:59:38.569Z,3.40
2017-08-09T12:02:06.197Z,4.27
2017-08-09T12:04:33.976Z,3.23
2017-08-09T12:07:01.621Z,3.20
2017-08-09T12:09:29.369Z,3.00
2017-08-09T12:11:57.115Z,3.30
2017-08-09T12:14:25.845Z,3.50
2017-08-09T12:16:53.461Z,2.93
2017-08-09T12:19:21.543Z,2.60
2017-08-09T12:21:49.188Z,2.37
2017-08-09T12:24:16.821Z,2.00
2017-08-09T12:26:44.498Z,2.20
2017-08-09T12:29:12.142Z,2.30
2017-08-09T12:31:39.814Z,1.57
2017-08-09T12:34:07.602Z,1.53
2017-08-09T12:36:35.238Z,1.83
2017-08-09T12:39:02.957Z,3.13
2017-08-09T12:41:30.669Z,2.53
2017-08-09T12:43:58.343Z,2.40
2017-08-09T12:46:25.987Z,2.00
2017-08-09T12:48:53.712Z,2.03
2017-08-09T12:51:21.377Z,2.07
2017-08-09T12:53:49.026Z,1.80
2017-08-09T12:56:16.710Z,2.10
2017-08-09T12:58:44.415Z,1.60
2017-08-09T13:01:12.046Z,1.37
2017-08-09T13:03:39.745Z,1.70
2017-08-09T13:06:07.381Z,1.83
2017-08-09T13:08:35.427Z,1.83
2017-08-09T13:11:03.522Z,1.33
2017-08-09T13:13:31.174Z,1.50
2017-08-09T13:15:58.811Z,1.30
2017-08-09T13:18:26.522Z,1.60
2017-08-09T13:20:54.346Z,1.90
2017-08-09T13:23:21.966Z,1.60
2017-08-09T13:25:49.693Z,1.30
2017-08-09T13:28:17.321Z,1.50
2017-08-09T13:30:45.341Z,1.70
2017-08-09T13:33:13.082Z,1.50
2017-08-09T13:35:40.829Z,1.33
2017-08-09T13:38:08.462Z,1.60
2017-08-09T13:40:36.148Z,1.47
2017-08-09T13:43:04.169Z,1.90
2017-08-09T13:45:31.822Z,1.97
2017-08-09T13:47:59.568Z,1.77
2017-08-09T13:50:27.212Z,1.20
2017-08-09T13:52:54.842Z,1.40
2017-08-09T13:55:22.634Z,1.10
2017-08-09T13:57:50.760Z,1.30
2017-08-09T14:00:18.390Z,1.90
2017-08-09T14:02:46.085Z,1.33
2017-08-09T14:05:14.208Z,1.70
2017-08-09T14:07:41.851Z,1.53
2017-08-09T14:10:09.600Z,1.50
2017-08-09T14:12:38.883Z,1.73
2017-08-09T14:15:06.537Z,1.67
2017-08-09T14:17:34.300Z,1.77
2017-08-09T14:20:02.330Z,1.83
2017-08-09T14:22:29.957Z,2.30
2017-08-09T14:24:57.723Z,2.20
2017-08-09T14:27:25.374Z,2.10
2017-08-09T14:29:53.014Z,2.37
2017-08-09T14:32:20.761Z,2.20
2017-08-09T14:34:48.404Z,2.00
2017-08-09T14:37:16.034Z,1.80
2017-08-09T14:39:43.713Z,1.93
2017-08-09T14:42:11.345Z,2.00
2017-08-09T14:44:38.969Z,1.90
2017-08-09T14:47:06.731Z,2.17
2017-08-09T14:49:34.366Z,1.80
2017-08-09T14:52:01.993Z,1.80
2017-08-09T14:54:29.769Z,2.10
2017-08-09T14:56:57.394Z,2.20
2017-08-09T14:59:25.059Z,2.17
2017-08-09T15:01:52.740Z,1.53
2017-08-09T15:04:20.770Z,2.07
2017-08-09T15:06:48.405Z,1.70
2017-08-09T15:09:16.087Z,1.83
2017-08-09T15:11:44.118Z,1.60
2017-08-09T15:14:12.157Z,1.60
2017-08-09T15:16:39.903Z,2.07
2017-08-09T15:19:07.535Z,1.77
2017-08-09T15:21:35.165Z,1.20
2017-08-09T15:24:02.843Z,1.90
2017-08-09T15:26:30.474Z,1.63
2017-08-09T15:28:58.131Z,1.73
2017-08-09T15:31:26.235Z,1.60
2017-08-09T15:33:53.877Z,1.60
2017-08-09T15:36:21.514Z,2.00
2017-08-09T15:38:49.733Z,1.43
2017-08-09T15:41:17.375Z,1.20
2017-08-09T15:43:45.022Z,1.47
2017-08-09T15:46:12.713Z,1.30
2017-08-09T15:48:40.414Z,1.47
2017-08-09T15:51:08.370Z,1.53
2017-08-09T15:53:36.113Z,1.27
2017-08-09T15:56:03.750Z,1.57
2017-08-09T15:58:31.389Z,1.50
2017-08-09T16:00:59.079Z,1.47
2017-08-09T16:03:27.110Z,1.80
2017-08-09T16:05:54.851Z,1.60
2017-08-09T16:08:22.598Z,1.10
2017-08-09T16:10:50.234Z,1.60
2017-08-09T16:13:18.298Z,1.50
2017-08-09T16:15:45.982Z,1.57
2017-08-09T16:18:14.099Z,1.53
2017-08-09T16:20:41.846Z,1.30
2017-08-09T16:23:09.526Z,1.40
2017-08-09T16:25:37.185Z,1.40
2017-08-09T16:28:04.819Z,1.33
2017-08-09T16:30:32.998Z,1.13
2017-08-09T16:33:00.629Z,1.00
2017-08-09T16:35:28.333Z,1.07
2017-08-09T16:37:56.080Z,1.60
2017-08-09T16:40:23.705Z,1.37
2017-08-09T16:42:51.341Z,1.40
2017-08-09T16:45:19.030Z,1.30
2017-08-09T16:47:47.169Z,1.33
2017-08-09T16:50:14.801Z,1.40
2017-08-09T16:52:42.564Z,1.30
2017-08-09T16:55:10.194Z,1.10
2017-08-09T16:57:37.830Z,1.40
2017-08-09T17:00:05.521Z,1.60
2017-08-09T17:02:33.552Z,1.10
2017-08-09T17:05:01.227Z,1.00
2017-08-09T17:07:28.965Z,1.33
2017-08-09T17:09:56.691Z,1.30
2017-08-09T17:12:24.442Z,1.30
2017-08-09T17:14:52.154Z,1.33
2017-08-09T17:17:19.831Z,1.30
2017-08-09T17:19:47.679Z,1.30
2017-08-09T17:22:15.366Z,1.20
2017-08-09T17:24:43.014Z,1.13
2017-08-09T17:27:10.645Z,1.30
2017-08-09T17:29:38.729Z,1.40
2017-08-09T17:32:06.415Z,1.00
2017-08-09T17:34:34.086Z,1.37
2017-08-09T17:37:02.175Z,1.70
2017-08-09T17:39:29.818Z,1.70
2017-08-09T17:41:57.510Z,2.27
2017-08-09T17:44:25.241Z,2.20
2017-08-09T17:46:52.882Z,2.57
2017-08-09T17:49:20.548Z,2.90
2017-08-09T17:51:48.292Z,2.57
2017-08-09T17:54:15.941Z,2.50
2017-08-09T17:56:43.586Z,2.43
2017-08-09T17:59:11.329Z,2.63
2017-08-09T18:01:38.973Z,1.73
2017-08-09T18:04:06.609Z,2.43
2017-08-09T18:06:34.368Z,1.97
2017-08-09T18:09:02.012Z,1.80
2017-08-09T18:11:29.670Z,1.97
2017-08-09T18:13:57.354Z,2.47
2017-08-09T18:16:25.006Z,1.90
2017-08-09T18:18:52.642Z,2.50
2017-08-09T18:21:20.332Z,1.60
2017-08-09T18:23:47.982Z,1.70
2017-08-09T18:26:15.617Z,2.07
2017-08-09T18:28:43.311Z,1.83
2017-08-09T18:31:10.966Z,1.77
2017-08-09T18:33:38.666Z,1.73
2017-08-09T18:36:06.467Z,1.60
2017-08-09T18:38:34.114Z,1.93
2017-08-09T18:41:01.800Z,1.97
2017-08-09T18:43:30.171Z,1.70
2017-08-09T18:45:58.238Z,1.97
2017-08-09T18:48:26.072Z,2.70
2017-08-09T18:50:53.921Z,2.30
2017-08-09T18:53:21.572Z,2.50
2017-08-09T18:55:49.217Z,1.87
2017-08-09T18:58:17.046Z,2.00
2017-08-09T19:00:44.691Z,1.90
2017-08-09T19:03:12.328Z,2.30
2017-08-09T19:05:40.203Z,2.83
2017-08-09T19:08:07.842Z,2.07
2017-08-09T19:10:35.477Z,2.57
2017-08-09T19:13:03.163Z,1.60
2017-08-09T19:15:31.226Z,1.90
2017-08-09T19:17:59.346Z,1.80
2017-08-09T19:20:27.034Z,1.90
2017-08-09T19:22:54.739Z,2.27
2017-08-09T19:25:22.371Z,1.80
2017-08-09T19:27:50.070Z,1.83
2017-08-09T19:30:17.707Z,1.50
2017-08-09T19:32:45.746Z,2.00
2017-08-09T19:35:13.426Z,1.90
2017-08-09T19:37:41.085Z,2.13
2017-08-09T19:40:08.763Z,2.40
2017-08-09T19:42:36.510Z,2.13
2017-08-09T19:45:04.158Z,2.67
2017-08-09T19:47:31.905Z,2.13
2017-08-09T19:49:59.703Z,2.10
2017-08-09T19:52:27.357Z,2.20
2017-08-09T19:54:55.002Z,2.00
2017-08-09T19:57:22.716Z,2.20
2017-08-09T19:59:50.347Z,1.90
2017-08-09T20:02:18.080Z,1.53
2017-08-09T20:04:45.771Z,1.87
2017-08-09T20:07:13.472Z,1.83
2017-08-09T20:09:41.118Z,2.53
2017-08-09T20:12:08.864Z,2.30
2017-08-09T20:14:36.513Z,2.30
2017-08-09T20:17:04.195Z,1.83
2017-08-09T20:19:32.878Z,2.50
2017-08-09T20:22:00.517Z,2.27
2017-08-09T20:24:28.174Z,2.20
2017-08-09T20:26:55.964Z,2.20
2017-08-09T20:29:23.622Z,2.07
2017-08-09T20:31:51.357Z,2.10
2017-08-09T20:34:19.074Z,2.20
2017-08-09T20:36:46.710Z,2.17
2017-08-09T20:39:14.362Z,2.10
2017-08-09T20:41:42.139Z,2.50
2017-08-09T20:44:09.785Z,2.43
2017-08-09T20:46:37.428Z,2.27
2017-08-09T20:49:05.118Z,2.30
2017-08-09T20:51:32.768Z,2.93
2017-08-09T20:54:00.470Z,3.30
2017-08-09T20:56:28.187Z,2.97
2017-08-09T20:58:55.826Z,2.73
2017-08-09T21:01:23.551Z,2.60
2017-08-09T21:03:51.354Z,2.87
2017-08-09T21:06:19.101Z,2.97
2017-08-09T21:08:46.882Z,3.10
2017-08-09T21:11:14.594Z,2.63
2017-08-09T21:13:42.346Z,2.57
2017-08-09T21:16:09.989Z,3.63
2017-08-09T21:18:37.710Z,3.13
2017-08-09T21:21:05.347Z,3.30
2017-08-09T21:23:32.997Z,2.60
2017-08-09T21:26:00.698Z,3.37
2017-08-09T21:28:28.730Z,2.97
2017-08-09T21:30:56.367Z,1.90
2017-08-09T21:33:24.083Z,2.60
2017-08-09T21:35:51.761Z,2.17
2017-08-09T21:38:19.397Z,2.23
2017-08-09T21:40:47.082Z,2.07
2017-08-09T21:43:15.232Z,2.03
2017-08-09T21:45:43.269Z,2.30
2017-08-09T21:48:10.971Z,2.00
2017-08-09T21:50:38.621Z,2.73
2017-08-09T21:53:06.254Z,2.43
2017-08-09T21:55:33.934Z,2.77
2017-08-09T21:58:01.588Z,2.70
2017-08-09T22:00:29.229Z,2.50
2017-08-09T22:02:56.909Z,3.37
2017-08-09T22:05:24.948Z,2.33
2017-08-09T22:07:52.994Z,2.40
2017-08-09T22:10:20.703Z,2.80
2017-08-09T22:12:48.334Z,2.80
2017-08-09T22:15:15.973Z,2.60
2017-08-09T22:17:43.673Z,2.37
2017-08-09T22:20:11.318Z,3.40
2017-08-09T22:22:38.950Z,3.80
2017-08-09T22:25:06.634Z,2.90
2017-08-09T22:27:34.682Z,3.20
2017-08-09T22:30:02.410Z,2.87
2017-08-09T22:32:30.100Z,2.40
2017-08-09T22:34:57.801Z,2.60
2017-08-09T22:37:25.445Z,3.03
2017-08-09T22:39:53.142Z,2.30
2017-08-09T22:42:20.790Z,2.80
2017-08-09T22:44:48.426Z,3.07
2017-08-09T22:47:16.126Z,3.20
2017-08-09T22:49:43.761Z,3.80
2017-08-09T22:52:11.394Z,3.10
2017-08-09T22:54:39.098Z,4.20
2017-08-09T22:57:07.129Z,3.70
2017-08-09T22:59:34.755Z,3.90
2017-08-09T23:02:02.509Z,3.77
2017-08-09T23:04:30.157Z,3.50
2017-08-09T23:06:57.790Z,4.23
2017-08-09T23:09:25.486Z,4.90
2017-08-09T23:11:53.125Z,4.70
2017-08-09T23:14:21.158Z,5.03
2017-08-09T23:16:48.836Z,4.60
2017-08-09T23:19:16.482Z,5.83
2017-08-09T23:21:44.182Z,4.60
2017-08-09T23:24:11.885Z,5.20
2017-08-09T23:26:39.524Z,5.93
2017-08-09T23:29:07.217Z,4.77
2017-08-09T23:31:34.964Z,5.30
2017-08-09T23:34:02.607Z,6.93
2017-08-09T23:36:30.237Z,6.80
2017-08-09T23:38:57.927Z,7.63
2017-08-09T23:41:25.566Z,7.43
2017-08-09T23:43:53.599Z,6.80
2017-08-09T23:46:21.346Z,7.30
2017-08-09T23:48:48.989Z,6.53
2017-08-09T23:51:16.636Z,7.27
2017-08-09T23:53:44.339Z,5.80
2017-08-09T23:56:11.963Z,6.60
2017-08-09T23:58:39.988Z,6.90
